createdAt,value
2019-05-22T00:02:16.099Z,81.00
2019-05-22T00:04:50.931Z,81.20
2019-05-22T00:07:24.436Z,81.20
2019-05-22T00:09:57.910Z,81.20
2019-05-22T00:12:45.682Z,80.70
2019-05-22T00:15:03.984Z,80.40
2019-05-22T00:17:36.301Z,80.30
2019-05-22T00:20:08.144Z,81.50
2019-05-22T00:22:41.881Z,82.30
2019-05-22T00:25:15.792Z,81.70
2019-05-22T00:27:49.183Z,81.50
2019-05-22T00:30:24.699Z,81.10
2019-05-22T00:32:56.919Z,82.80
2019-05-22T00:35:29.630Z,82.20
2019-05-22T00:38:03.869Z,82.30
2019-05-22T00:40:37.859Z,82.50
2019-05-22T00:43:13.971Z,82.00
2019-05-22T00:45:45.622Z,81.60
2019-05-22T00:48:22.498Z,82.70
2019-05-22T00:50:58.735Z,82.00
2019-05-22T00:53:36.155Z,81.90
2019-05-22T00:56:12.573Z,81.60
2019-05-22T00:58:45.079Z,81.80
2019-05-22T01:01:20.048Z,81.80
2019-05-22T01:03:52.141Z,81.50
2019-05-22T01:06:24.575Z,81.20
2019-05-22T01:08:58.274Z,81.60
2019-05-22T01:11:32.058Z,81.30
2019-05-22T01:14:05.842Z,83.50
2019-05-22T01:16:39.072Z,84.60
2019-05-22T01:19:13.614Z,83.20
2019-05-22T01:21:50.725Z,84.30
2019-05-22T01:24:23.118Z,84.10
2019-05-22T01:26:58.779Z,83.90
2019-05-22T01:29:33.178Z,83.10
2019-05-22T01:32:05.931Z,82.70
2019-05-22T01:34:39.342Z,83.00
2019-05-22T01:37:12.470Z,82.90
2019-05-22T01:39:50.963Z,83.20
2019-05-22T01:42:25.205Z,82.20
2019-05-22T01:45:04.140Z,81.90
2019-05-22T01:47:35.179Z,81.80
2019-05-22T01:50:08.826Z,82.80
2019-05-22T01:52:44.228Z,83.80
2019-05-22T01:55:15.932Z,84.40
2019-05-22T01:57:48.413Z,84.30
2019-05-22T02:00:20.869Z,85.70
2019-05-22T02:02:54.528Z,86.20
2019-05-22T02:05:28.188Z,86.60
2019-05-22T02:08:00.505Z,86.10
2019-05-22T02:10:35.536Z,86.60
2019-05-22T02:13:09.204Z,86.60
2019-05-22T02:15:41.727Z,87.10
2019-05-22T02:18:32.439Z,86.80
2019-05-22T02:21:08.747Z,86.20
2019-05-22T02:23:41.448Z,86.40
2019-05-22T02:26:15.484Z,86.00
2019-05-22T02:28:47.498Z,85.90
2019-05-22T02:31:20.487Z,87.30
2019-05-22T02:34:11.099Z,87.90
2019-05-22T02:36:44.929Z,87.20
2019-05-22T02:39:19.276Z,87.20
2019-05-22T02:42:03.414Z,87.00
2019-05-22T02:44:34.875Z,88.40
2019-05-22T02:47:19.091Z,87.20
2019-05-22T02:49:44.121Z,87.60
2019-05-22T02:52:20.440Z,87.60
2019-05-22T02:54:53.083Z,87.70
2019-05-22T02:57:27.934Z,87.80
2019-05-22T03:00:01.325Z,87.90
2019-05-22T03:02:34.868Z,88.20
2019-05-22T03:05:11.638Z,87.50
2019-05-22T03:07:44.442Z,86.40
2019-05-22T03:10:18.649Z,87.00
2019-05-22T03:12:52.688Z,86.60
2019-05-22T03:15:27.017Z,86.60
2019-05-22T03:18:01.990Z,87.00
2019-05-22T03:20:35.516Z,86.80
2019-05-22T03:23:43.182Z,86.80
2019-05-22T03:26:16.448Z,86.00
2019-05-22T03:28:48.477Z,85.90
2019-05-22T03:31:23.843Z,85.90
2019-05-22T03:33:54.345Z,85.60
2019-05-22T03:36:29.521Z,84.50
2019-05-22T03:39:00.863Z,84.60
2019-05-22T03:41:34.630Z,83.90
2019-05-22T03:44:07.091Z,83.30
2019-05-22T03:46:42.053Z,82.60
2019-05-22T03:49:29.643Z,81.90
2019-05-22T03:51:53.614Z,79.50
2019-05-22T03:54:26.592Z,79.90
2019-05-22T03:57:03.498Z,78.30
2019-05-22T03:59:35.129Z,76.70
2019-05-22T04:02:08.301Z,77.20
2019-05-22T04:04:42.078Z,77.30
2019-05-22T04:07:32.380Z,75.50
2019-05-22T04:10:06.640Z,74.80
2019-05-22T04:12:45.772Z,74.30
2019-05-22T04:15:20.407Z,74.10
2019-05-22T04:17:59.903Z,75.50
2019-05-22T04:20:31.767Z,75.80
2019-05-22T04:23:06.770Z,75.30
2019-05-22T04:25:39.061Z,75.20
2019-05-22T04:28:13.860Z,74.70
2019-05-22T04:30:46.828Z,74.80
2019-05-22T04:33:20.675Z,74.70
2019-05-22T04:35:53.086Z,74.00
2019-05-22T04:38:25.923Z,73.10
2019-05-22T04:40:59.407Z,72.10
2019-05-22T04:43:33.854Z,71.90
2019-05-22T04:46:11.846Z,72.00
2019-05-22T04:48:50.125Z,70.40
2019-05-22T04:51:42.527Z,70.70
2019-05-22T04:54:16.303Z,71.10
2019-05-22T04:56:50.470Z,70.90
2019-05-22T04:59:24.235Z,70.80
2019-05-22T05:01:57.576Z,70.40
2019-05-22T05:04:30.767Z,70.40
2019-05-22T05:07:05.098Z,70.20
2019-05-22T05:09:37.438Z,70.00
2019-05-22T05:12:12.866Z,70.10
2019-05-22T05:14:46.174Z,69.90
2019-05-22T05:17:19.719Z,69.40
2019-05-22T05:19:51.521Z,68.80
2019-05-22T05:22:32.817Z,68.80
2019-05-22T05:25:05.538Z,68.80
2019-05-22T05:27:37.945Z,68.10
2019-05-22T05:30:11.327Z,67.90
2019-05-22T05:32:45.834Z,67.00
2019-05-22T05:35:19.121Z,67.80
2019-05-22T05:37:51.231Z,66.70
2019-05-22T05:40:28.200Z,66.40
2019-05-22T05:43:04.785Z,65.20
2019-05-22T05:45:38.399Z,65.90
2019-05-22T05:48:14.299Z,65.80
2019-05-22T05:51:05.384Z,65.30
2019-05-22T05:53:43.730Z,65.00
2019-05-22T05:56:21.350Z,62.60
2019-05-22T05:58:53.088Z,63.00
2019-05-22T06:01:43.768Z,62.40
2019-05-22T06:04:16.878Z,62.60
2019-05-22T06:06:53.533Z,61.80
2019-05-22T06:09:27.913Z,60.70
2019-05-22T06:12:05.741Z,60.50
2019-05-22T06:14:39.332Z,60.40
2019-05-22T06:17:31.014Z,61.60
2019-05-22T06:20:10.696Z,61.40
2019-05-22T06:22:46.434Z,59.60
2019-05-22T06:25:18.784Z,59.30
2019-05-22T06:27:52.216Z,60.20
2019-05-22T06:30:27.924Z,57.50
2019-05-22T06:33:20.181Z,57.50
2019-05-22T06:35:53.934Z,57.40
2019-05-22T06:38:29.306Z,58.10
2019-05-22T06:41:02.122Z,57.40
2019-05-22T06:43:41.622Z,55.80
2019-05-22T06:46:14.373Z,57.20
2019-05-22T06:48:49.454Z,54.20
2019-05-22T06:51:27.778Z,55.90
2019-05-22T06:54:00.355Z,54.00
2019-05-22T06:56:32.733Z,52.20
2019-05-22T06:59:05.434Z,54.30
2019-05-22T07:01:38.903Z,52.10
2019-05-22T07:04:10.878Z,52.80
2019-05-22T07:06:43.750Z,53.90
2019-05-22T07:09:16.709Z,53.80
2019-05-22T07:11:49.334Z,53.40
2019-05-22T07:14:22.817Z,54.80
2019-05-22T07:16:57.089Z,54.50
2019-05-22T07:19:31.866Z,54.70
2019-05-22T07:22:05.644Z,54.00
2019-05-22T07:24:38.519Z,54.10
2019-05-22T07:27:29.084Z,54.20
2019-05-22T07:30:02.920Z,53.70
2019-05-22T07:32:37.375Z,53.60
2019-05-22T07:35:11.010Z,54.40
2019-05-22T07:37:45.906Z,54.60
2019-05-22T07:40:18.540Z,54.90
2019-05-22T07:42:51.372Z,54.40
2019-05-22T07:45:28.799Z,53.70
2019-05-22T07:48:01.959Z,52.50
2019-05-22T07:50:37.825Z,52.80
2019-05-22T07:53:11.910Z,54.20
2019-05-22T07:55:43.361Z,54.70
2019-05-22T07:58:20.554Z,54.40
2019-05-22T08:01:00.204Z,54.10
2019-05-22T08:03:35.984Z,54.50
2019-05-22T08:06:10.958Z,53.60
2019-05-22T08:08:44.790Z,53.70
2019-05-22T08:11:17.476Z,52.90
2019-05-22T08:13:51.751Z,54.00
2019-05-22T08:16:26.969Z,54.50
2019-05-22T08:19:00.461Z,53.60
2019-05-22T08:21:34.859Z,52.00
2019-05-22T08:24:08.380Z,53.70
2019-05-22T08:26:53.720Z,54.80
2019-05-22T08:29:14.898Z,54.50
2019-05-22T08:31:47.869Z,53.40
2019-05-22T08:34:20.562Z,53.90
2019-05-22T08:36:53.539Z,53.90
2019-05-22T08:39:27.349Z,54.50
2019-05-22T08:42:00.584Z,54.50
2019-05-22T08:44:33.334Z,53.80
2019-05-22T08:47:06.121Z,54.40
2019-05-22T08:49:38.707Z,51.50
2019-05-22T08:52:23.011Z,52.00
2019-05-22T08:54:47.612Z,53.20
2019-05-22T08:57:21.123Z,53.70
2019-05-22T08:59:55.790Z,53.60
2019-05-22T09:02:27.404Z,53.50
2019-05-22T09:05:01.697Z,53.90
2019-05-22T09:07:35.637Z,53.50
2019-05-22T09:10:10.462Z,53.10
2019-05-22T09:12:41.846Z,53.60
2019-05-22T09:15:16.735Z,53.40
2019-05-22T09:17:51.229Z,54.00
2019-05-22T09:20:25.228Z,52.20
2019-05-22T09:22:57.819Z,53.30
2019-05-22T09:25:32.502Z,52.90
2019-05-22T09:28:06.741Z,53.00
2019-05-22T09:30:39.618Z,53.40
2019-05-22T09:33:14.051Z,53.80
2019-05-22T09:35:45.930Z,53.90
2019-05-22T09:38:17.643Z,53.70
2019-05-22T09:40:50.779Z,54.80
2019-05-22T09:43:23.818Z,55.40
2019-05-22T09:45:56.658Z,55.50
2019-05-22T09:48:30.850Z,54.60
2019-05-22T09:51:02.318Z,55.00
2019-05-22T09:53:34.222Z,55.50
2019-05-22T09:56:06.026Z,55.60
2019-05-22T09:58:40.346Z,55.80
2019-05-22T10:01:13.794Z,56.10
2019-05-22T10:03:47.453Z,56.20
2019-05-22T10:06:21.880Z,56.50
2019-05-22T10:08:54.576Z,56.50
2019-05-22T10:11:28.022Z,55.60
2019-05-22T10:14:02.275Z,55.10
2019-05-22T10:16:35.015Z,55.20
2019-05-22T10:19:07.582Z,55.60
2019-05-22T10:21:40.762Z,56.00
2019-05-22T10:24:13.506Z,55.80
2019-05-22T10:26:47.943Z,55.50
2019-05-22T10:29:25.211Z,55.60
2019-05-22T10:31:57.657Z,55.90
2019-05-22T10:34:31.516Z,56.20
2019-05-22T10:37:06.357Z,56.60
2019-05-22T10:39:38.786Z,56.70
2019-05-22T10:42:13.077Z,56.80
2019-05-22T10:44:45.360Z,56.70
2019-05-22T10:47:18.829Z,57.00
2019-05-22T10:49:51.413Z,57.80
2019-05-22T10:52:24.737Z,58.40
2019-05-22T10:54:57.345Z,58.80
2019-05-22T10:57:30.357Z,58.80
2019-05-22T11:00:05.803Z,59.30
2019-05-22T11:02:38.470Z,60.00
2019-05-22T11:05:13.625Z,59.60
2019-05-22T11:07:46.447Z,59.60
2019-05-22T11:10:18.859Z,59.80
2019-05-22T11:12:54.013Z,60.60
2019-05-22T11:15:25.217Z,61.20
2019-05-22T11:17:57.215Z,61.70
2019-05-22T11:20:31.434Z,61.60
2019-05-22T11:23:04.234Z,61.60
2019-05-22T11:25:39.140Z,62.30
2019-05-22T11:28:17.855Z,62.40
2019-05-22T11:30:55.218Z,62.90
2019-05-22T11:33:28.583Z,63.00
2019-05-22T11:36:01.495Z,63.50
2019-05-22T11:38:36.215Z,63.20
2019-05-22T11:41:12.353Z,63.70
2019-05-22T11:43:46.363Z,63.70
2019-05-22T11:46:19.801Z,64.20
2019-05-22T11:48:55.452Z,64.70
2019-05-22T11:51:28.206Z,64.60
2019-05-22T11:54:09.138Z,65.10
2019-05-22T11:56:35.062Z,65.40
2019-05-22T11:59:07.506Z,65.60
2019-05-22T12:01:42.712Z,66.10
2019-05-22T12:04:14.567Z,67.30
2019-05-22T12:06:53.814Z,66.80
2019-05-22T12:09:25.463Z,67.00
2019-05-22T12:11:59.357Z,67.20
2019-05-22T12:14:32.781Z,67.60
2019-05-22T12:17:04.438Z,68.00
2019-05-22T12:19:38.301Z,67.70
2019-05-22T12:22:11.413Z,67.80
2019-05-22T12:24:44.217Z,68.00
2019-05-22T12:27:17.180Z,68.40
2019-05-22T12:29:50.703Z,69.20
2019-05-22T12:32:25.205Z,68.50
2019-05-22T12:34:58.274Z,68.20
2019-05-22T12:37:29.851Z,68.70
2019-05-22T12:40:03.272Z,69.00
2019-05-22T12:42:35.770Z,69.20
2019-05-22T12:45:11.228Z,69.60
2019-05-22T12:47:45.450Z,69.90
2019-05-22T12:50:19.547Z,70.80
2019-05-22T12:52:53.929Z,70.50
2019-05-22T12:55:27.329Z,70.90
2019-05-22T12:58:00.583Z,71.30
2019-05-22T13:00:34.173Z,72.10
2019-05-22T13:03:08.090Z,71.70
2019-05-22T13:05:41.596Z,71.50
2019-05-22T13:08:15.688Z,71.10
2019-05-22T13:10:50.716Z,72.20
2019-05-22T13:13:22.409Z,72.00
2019-05-22T13:15:56.339Z,72.10
2019-05-22T13:18:29.388Z,71.80
2019-05-22T13:21:03.185Z,72.00
2019-05-22T13:23:39.614Z,71.90
2019-05-22T13:26:13.252Z,71.60
2019-05-22T13:28:51.023Z,71.60
2019-05-22T13:31:23.727Z,72.10
2019-05-22T13:33:56.710Z,72.30
2019-05-22T13:36:29.595Z,72.40
2019-05-22T13:39:04.313Z,72.40
2019-05-22T13:41:40.896Z,72.10
2019-05-22T13:44:14.649Z,72.60
2019-05-22T13:46:48.766Z,73.20
2019-05-22T13:49:24.432Z,73.40
2019-05-22T13:52:01.667Z,73.50
2019-05-22T13:54:34.565Z,73.70
2019-05-22T13:57:07.341Z,74.10
2019-05-22T13:59:39.907Z,74.00
2019-05-22T14:02:12.694Z,74.40
2019-05-22T14:04:45.408Z,74.60
2019-05-22T14:07:18.354Z,74.90
2019-05-22T14:09:52.676Z,75.00
2019-05-22T14:12:25.478Z,75.70
2019-05-22T14:14:59.514Z,75.80
2019-05-22T14:17:36.955Z,75.60
2019-05-22T14:20:12.301Z,75.20
2019-05-22T14:22:46.403Z,75.20
2019-05-22T14:25:21.691Z,75.10
2019-05-22T14:27:53.497Z,75.70
2019-05-22T14:30:27.179Z,75.60
2019-05-22T14:33:04.166Z,76.00
2019-05-22T14:35:47.525Z,76.20
2019-05-22T14:38:12.368Z,76.20
2019-05-22T14:40:44.070Z,76.10
2019-05-22T14:43:18.496Z,76.40
2019-05-22T14:45:51.400Z,76.40
2019-05-22T14:48:27.152Z,76.50
2019-05-22T14:51:04.977Z,76.60
2019-05-22T14:53:40.172Z,76.80
2019-05-22T14:56:13.074Z,77.00
2019-05-22T14:58:43.690Z,77.20
2019-05-22T15:01:16.898Z,77.30
2019-05-22T15:03:51.973Z,77.40
2019-05-22T15:06:23.849Z,77.60
2019-05-22T15:08:56.807Z,77.40
2019-05-22T15:11:28.174Z,77.80
2019-05-22T15:13:59.730Z,76.80
2019-05-22T15:16:31.101Z,77.60
2019-05-22T15:19:04.646Z,78.00
2019-05-22T15:21:35.064Z,78.00
2019-05-22T15:24:06.999Z,77.90
2019-05-22T15:26:38.572Z,77.90
2019-05-22T15:29:10.000Z,78.10
2019-05-22T15:31:42.687Z,78.30
2019-05-22T15:34:12.919Z,78.40
2019-05-22T15:36:43.943Z,78.50
2019-05-22T15:39:18.172Z,79.10
2019-05-22T15:41:49.880Z,78.30
2019-05-22T15:44:21.449Z,78.10
2019-05-22T15:46:53.062Z,78.40
2019-05-22T15:49:24.068Z,78.80
2019-05-22T15:51:56.206Z,78.80
2019-05-22T15:54:30.349Z,79.00
2019-05-22T15:57:02.277Z,79.00
2019-05-22T15:59:33.004Z,79.30
2019-05-22T16:02:07.227Z,79.50
2019-05-22T16:04:42.267Z,79.60
2019-05-22T16:07:14.442Z,79.60
2019-05-22T16:09:47.017Z,79.80
2019-05-22T16:12:21.627Z,80.20
2019-05-22T16:14:53.081Z,80.20
2019-05-22T16:17:24.769Z,80.30
2019-05-22T16:19:57.275Z,80.30
2019-05-22T16:22:31.257Z,80.40
2019-05-22T16:25:02.154Z,80.50
2019-05-22T16:27:44.933Z,80.70
2019-05-22T16:30:18.606Z,80.10
2019-05-22T16:32:51.200Z,80.30
2019-05-22T16:35:22.634Z,80.50
2019-05-22T16:37:53.916Z,80.40
2019-05-22T16:40:28.809Z,80.40
2019-05-22T16:43:00.307Z,80.40
2019-05-22T16:45:33.042Z,80.10
2019-05-22T16:48:04.898Z,79.80
2019-05-22T16:50:37.150Z,79.30
2019-05-22T16:53:10.978Z,79.20
2019-05-22T16:55:43.120Z,78.90
2019-05-22T16:58:16.945Z,79.20
2019-05-22T17:00:48.137Z,79.40
2019-05-22T17:03:18.659Z,79.60
2019-05-22T17:05:51.605Z,79.90
2019-05-22T17:08:23.148Z,79.80
2019-05-22T17:10:58.626Z,80.00
2019-05-22T17:13:30.910Z,80.20
2019-05-22T17:16:03.147Z,80.20
2019-05-22T17:18:46.672Z,80.00
2019-05-22T17:21:08.093Z,79.60
2019-05-22T17:23:39.596Z,79.40
2019-05-22T17:26:12.367Z,79.80
2019-05-22T17:28:43.913Z,80.40
2019-05-22T17:31:15.379Z,80.20
2019-05-22T17:33:47.090Z,80.00
2019-05-22T17:36:20.312Z,79.90
2019-05-22T17:38:54.462Z,80.00
2019-05-22T17:41:26.026Z,80.00
2019-05-22T17:44:00.297Z,79.70
2019-05-22T17:46:38.116Z,79.30
2019-05-22T17:49:12.581Z,79.30
2019-05-22T17:51:44.507Z,78.90
2019-05-22T17:54:16.768Z,78.80
2019-05-22T17:56:48.739Z,78.90
2019-05-22T17:59:21.182Z,78.60
2019-05-22T18:01:51.528Z,78.70
2019-05-22T18:04:24.199Z,78.80
2019-05-22T18:07:00.018Z,78.80
2019-05-22T18:09:30.731Z,79.60
2019-05-22T18:12:02.795Z,79.00
2019-05-22T18:14:34.273Z,79.20
2019-05-22T18:17:05.623Z,79.60
2019-05-22T18:19:35.959Z,79.40
2019-05-22T18:22:10.074Z,79.80
2019-05-22T18:24:42.040Z,79.70
2019-05-22T18:27:12.333Z,79.70
2019-05-22T18:29:43.884Z,80.20
2019-05-22T18:32:14.443Z,79.80
2019-05-22T18:34:44.754Z,79.80
2019-05-22T18:37:15.251Z,80.20
2019-05-22T18:39:46.730Z,80.60
2019-05-22T18:42:18.502Z,80.40
2019-05-22T18:44:48.885Z,80.30
2019-05-22T18:47:19.661Z,79.90
2019-05-22T18:49:52.234Z,79.80
2019-05-22T18:52:38.174Z,80.10
2019-05-22T18:54:55.466Z,80.20
2019-05-22T18:57:28.828Z,80.30
2019-05-22T19:00:04.225Z,79.90
2019-05-22T19:02:34.213Z,79.60
2019-05-22T19:05:07.337Z,79.60
2019-05-22T19:07:37.801Z,79.60
2019-05-22T19:10:10.875Z,79.20
2019-05-22T19:12:42.457Z,79.20
2019-05-22T19:15:13.772Z,79.00
2019-05-22T19:17:45.230Z,78.90
2019-05-22T19:20:16.687Z,78.80
2019-05-22T19:23:00.321Z,79.10
2019-05-22T19:25:23.683Z,78.90
2019-05-22T19:27:53.909Z,79.30
2019-05-22T19:30:26.973Z,79.20
2019-05-22T19:32:58.276Z,79.70
2019-05-22T19:35:29.452Z,79.50
2019-05-22T19:38:01.686Z,79.60
2019-05-22T19:40:32.097Z,79.50
2019-05-22T19:43:05.764Z,80.40
2019-05-22T19:45:36.171Z,79.90
2019-05-22T19:48:08.136Z,80.00
2019-05-22T19:50:40.738Z,80.00
2019-05-22T19:53:19.485Z,80.20
2019-05-22T19:55:48.419Z,79.90
2019-05-22T19:58:22.068Z,81.10
2019-05-22T20:00:53.380Z,82.60
2019-05-22T20:03:25.211Z,81.50
2019-05-22T20:05:57.610Z,81.30
2019-05-22T20:08:28.821Z,81.20
2019-05-22T20:10:59.240Z,81.20
2019-05-22T20:13:31.023Z,81.30
2019-05-22T20:16:02.499Z,81.60
2019-05-22T20:18:33.955Z,81.70
2019-05-22T20:21:04.835Z,81.40
2019-05-22T20:23:36.910Z,81.60
2019-05-22T20:26:07.373Z,81.80
2019-05-22T20:28:39.328Z,82.50
2019-05-22T20:31:10.113Z,82.20
2019-05-22T20:33:41.681Z,82.20
2019-05-22T20:36:13.863Z,81.70
2019-05-22T20:38:45.186Z,82.20
2019-05-22T20:41:15.732Z,82.50
2019-05-22T20:43:46.908Z,82.60
2019-05-22T20:46:18.524Z,82.50
2019-05-22T20:48:51.907Z,82.40
2019-05-22T20:51:24.319Z,82.30
2019-05-22T20:53:56.126Z,82.20
2019-05-22T20:56:29.317Z,82.20
2019-05-22T20:59:01.122Z,82.00
2019-05-22T21:01:33.843Z,82.50
2019-05-22T21:04:08.038Z,82.20
2019-05-22T21:06:41.391Z,82.60
2019-05-22T21:09:12.360Z,83.10
2019-05-22T21:11:43.748Z,82.80
2019-05-22T21:14:15.490Z,83.00
2019-05-22T21:16:47.449Z,82.60
2019-05-22T21:19:18.393Z,83.20
2019-05-22T21:21:51.591Z,83.20
2019-05-22T21:24:21.921Z,82.80
2019-05-22T21:26:55.148Z,82.80
2019-05-22T21:29:25.786Z,82.40
2019-05-22T21:31:57.008Z,82.20
2019-05-22T21:34:30.985Z,82.70
2019-05-22T21:37:02.623Z,83.10
2019-05-22T21:39:34.115Z,83.00
2019-05-22T21:42:04.958Z,82.60
2019-05-22T21:44:38.238Z,83.00
2019-05-22T21:47:08.810Z,82.60
2019-05-22T21:49:39.342Z,83.60
2019-05-22T21:52:27.459Z,83.90
2019-05-22T21:55:00.554Z,84.40
2019-05-22T21:57:30.910Z,84.30
2019-05-22T22:00:02.359Z,84.20
2019-05-22T22:02:36.690Z,84.50
2019-05-22T22:05:10.239Z,84.90
2019-05-22T22:07:43.006Z,83.80
2019-05-22T22:10:17.383Z,83.60
2019-05-22T22:12:48.837Z,83.40
2019-05-22T22:15:19.068Z,83.20
2019-05-22T22:17:50.669Z,83.10
2019-05-22T22:20:23.302Z,82.90
2019-05-22T22:22:53.995Z,83.10
2019-05-22T22:25:25.383Z,83.40
2019-05-22T22:27:57.456Z,83.20
2019-05-22T22:30:29.565Z,83.00
2019-05-22T22:33:02.878Z,83.00
2019-05-22T22:35:34.781Z,83.10
2019-05-22T22:38:06.070Z,83.00
2019-05-22T22:40:37.245Z,83.00
2019-05-22T22:43:08.727Z,82.80
2019-05-22T22:45:40.126Z,83.30
2019-05-22T22:48:12.389Z,83.00
2019-05-22T22:50:47.831Z,82.70
2019-05-22T22:53:20.764Z,82.80
2019-05-22T22:55:51.232Z,83.10
2019-05-22T22:58:21.461Z,83.20
2019-05-22T23:00:54.877Z,83.90
2019-05-22T23:03:27.093Z,83.00
2019-05-22T23:05:58.529Z,83.80
2019-05-22T23:08:31.746Z,84.10
2019-05-22T23:11:05.435Z,84.20
2019-05-22T23:13:38.027Z,84.60
2019-05-22T23:16:09.214Z,84.50
2019-05-22T23:18:49.269Z,84.90
2019-05-22T23:21:38.900Z,84.70
2019-05-22T23:24:22.306Z,85.80
2019-05-22T23:26:54.350Z,86.30
2019-05-22T23:29:26.554Z,86.20
2019-05-22T23:31:59.958Z,86.20
2019-05-22T23:34:31.632Z,86.40
2019-05-22T23:37:03.563Z,86.10
2019-05-22T23:39:41.320Z,86.30
2019-05-22T23:42:15.367Z,86.10
2019-05-22T23:44:45.922Z,86.00
2019-05-22T23:47:18.052Z,86.10
2019-05-22T23:49:49.656Z,86.10
2019-05-22T23:52:21.691Z,86.10
2019-05-22T23:54:54.612Z,85.70
2019-05-22T23:57:27.097Z,85.30
